地図

経路データ

SID SEASON NUMBER BASIN SUBBASIN NAME ISO_TIME NATURE LAT LON WMO_WIND WMO_PRES WMO_AGENCY TRACK_TYPE DIST2LAND LANDFALL IFLAG USA_AGENCY USA_ATCF_ID USA_LAT USA_LON USA_RECORD USA_STATUS USA_WIND USA_PRES USA_SSHS USA_R34_NE USA_R34_SE USA_R34_SW USA_R34_NW USA_R50_NE USA_R50_SE USA_R50_SW USA_R50_NW USA_R64_NE USA_R64_SE USA_R64_SW USA_R64_NW USA_POCI USA_ROCI USA_RMW USA_EYE TOKYO_LAT TOKYO_LON TOKYO_GRADE TOKYO_WIND TOKYO_PRES TOKYO_R50_DIR TOKYO_R50_LONG TOKYO_R50_SHORT TOKYO_R30_DIR TOKYO_R30_LONG TOKYO_R30_SHORT TOKYO_LAND CMA_LAT CMA_LON CMA_CAT CMA_WIND CMA_PRES HKO_LAT HKO_LON HKO_CAT HKO_WIND HKO_PRES NEWDELHI_LAT NEWDELHI_LON NEWDELHI_GRADE NEWDELHI_WIND NEWDELHI_PRES NEWDELHI_CI NEWDELHI_DP NEWDELHI_POCI REUNION_LAT REUNION_LON REUNION_TYPE REUNION_WIND REUNION_PRES REUNION_TNUM REUNION_CI REUNION_RMW REUNION_R34_NE REUNION_R34_SE REUNION_R34_SW REUNION_R34_NW REUNION_R50_NE REUNION_R50_SE REUNION_R50_SW REUNION_R50_NW REUNION_R64_NE REUNION_R64_SE REUNION_R64_SW REUNION_R64_NW BOM_LAT BOM_LON BOM_TYPE BOM_WIND BOM_PRES BOM_TNUM BOM_CI BOM_RMW BOM_R34_NE BOM_R34_SE BOM_R34_SW BOM_R34_NW BOM_R50_NE BOM_R50_SE BOM_R50_SW BOM_R50_NW BOM_R64_NE BOM_R64_SE BOM_R64_SW BOM_R64_NW BOM_ROCI BOM_POCI BOM_EYE BOM_POS_METHOD BOM_PRES_METHOD NADI_LAT NADI_LON NADI_CAT NADI_WIND NADI_PRES WELLINGTON_LAT WELLINGTON_LON WELLINGTON_WIND WELLINGTON_PRES DS824_LAT DS824_LON DS824_STAGE DS824_WIND DS824_PRES TD9636_LAT TD9636_LON TD9636_STAGE TD9636_WIND TD9636_PRES TD9635_LAT TD9635_LON TD9635_WIND TD9635_PRES TD9635_ROCI NEUMANN_LAT NEUMANN_LON NEUMANN_CLASS NEUMANN_WIND NEUMANN_PRES MLC_LAT MLC_LON MLC_CLASS MLC_WIND MLC_PRES USA_GUST BOM_GUST BOM_GUST_PER REUNION_GUST REUNION_GUST_PER USA_SEAHGT USA_SEARAD_NE USA_SEARAD_SE USA_SEARAD_SW USA_SEARAD_NW STORM_SPEED STORM_DIR
1852241N34278 1852 5 NA NA NOT_NAMED 1852-08-28 06:00:00 TS 33.6000 -82.5000 spur-other 0 0 _____________O -1 33.6000 -82.5000 TS 40 13 74
1852241N34278 1852 5 NA NA NOT_NAMED 1852-08-28 09:00:00 TS 33.7771 -81.7491 spur-other 0 0 _____________P -1 33.7707 -81.7575 TS 40 13 72
1852241N34278 1852 5 NA NA NOT_NAMED 1852-08-28 12:00:00 TS 34.0000 -81.0000 spur-other 0 0 _____________O -1 34.0000 -81.0000 TS 40 14 66
1852241N34278 1852 5 NA NA NOT_NAMED 1852-08-28 15:00:00 TS 34.3274 -80.2278 spur-other 0 0 _____________P -1 34.3274 -80.2278 TS 40 14 61
1852241N34278 1852 5 NA NA NOT_NAMED 1852-08-28 18:00:00 TS 34.7000 -79.5000 spur-other 0 0 _____________O -1 34.7000 -79.5000 TS 40 13 57
1852241N34278 1852 5 NA NA NOT_NAMED 1852-08-28 21:00:00 TS 35.0417 -78.8839 spur-other 0 0 _____________P -1 35.0417 -78.8839 TS 45 12 55
1852241N34278 1852 5 NA NA NOT_NAMED 1852-08-29 00:00:00 TS 35.4000 -78.3000 spur-other 0 0 _____________O -1 35.4000 -78.3000 TS 50 12 53
1852241N34278 1852 5 NA NA NOT_NAMED 1852-08-29 03:00:00 TS 35.7920 -77.6719 spur-other 0 0 _____________P -1 35.7920 -77.6719 TS 50 13 53
1852241N34278 1852 5 NA NA NOT_NAMED 1852-08-29 06:00:00 TS 36.2000 -77.0000 spur-other 0 0 _____________O -1 36.2000 -77.0000 TS 50 14 55
1852241N34278 1852 5 NA NA NOT_NAMED 1852-08-29 09:00:00 TS 36.6002 -76.2423 spur-other 0 0 _____________P -1 36.6002 -76.2423 TS 50 14 56
1852241N34278 1852 5 NA NA NOT_NAMED 1852-08-29 12:00:00 TS 37.0000 -75.5000 spur-other 37 37 _____________O -1 37.0000 -75.5000 TS 50 14 54
1852241N34278 1852 5 NA NA NOT_NAMED 1852-08-29 15:00:00 TS 37.3993 -74.8765 spur-other 69 69 _____________P -1 37.3993 -74.8765 TS 50 12 50
1852241N34278 1852 5 NA NA NOT_NAMED 1852-08-29 18:00:00 TS 37.8000 -74.3000 spur-other 89 89 _____________O -1 37.8000 -74.3000 TS 50 12 48
1852241N34278 1852 5 NA NA NOT_NAMED 1852-08-29 21:00:00 TS 38.1906 -73.7801 spur-other 113 113 _____________P -1 38.1906 -73.7801 TS 50 12 50
1852241N34278 1852 5 NA NA NOT_NAMED 1852-08-30 00:00:00 TS 38.6000 -73.1000 spur-other 143 143 _____________O -1 38.6000 -73.1000 TS 50 17 59
1852241N34278 1852 5 NA NA NOT_NAMED 1852-08-30 03:00:00 TS 39.0378 -71.9590 spur-other 204 195 _____________P -1 39.0378 -71.9590 TS 47 20 63
1852241N34278 1852 5 NA NA NOT_NAMED 1852-08-30 06:00:00 ET 39.5000 -70.8000 spur-other 210 174 _____________O -1 39.5000 -70.8000 EX 45 18 57
1852241N34278 1852 5 NA NA NOT_NAMED 1852-08-30 09:00:00 ET 39.9910 -70.0362 spur-other 176 139 _____________P -1 39.9910 -70.0362 EX 45 14 45
1852241N34278 1852 5 NA NA NOT_NAMED 1852-08-30 12:00:00 ET 40.5000 -69.5000 spur-other 139 108 _____________O -1 40.5000 -69.5000 EX 45 12 37
1852241N34278 1852 5 NA NA NOT_NAMED 1852-08-30 15:00:00 ET 40.9919 -69.0609 spur-other 108 101 _____________P -1 40.9919 -69.0609 EX 42 12 31
1852241N34278 1852 5 NA NA NOT_NAMED 1852-08-30 18:00:00 ET 41.5000 -68.7000 spur-other 110 108 _____________O -1 41.5000 -68.7000 EX 40 12 28
1852241N34278 1852 5 NA NA NOT_NAMED 1852-08-30 21:00:00 ET 42.0423 -68.3067 spur-other 141 141 _____________P -1 42.0423 -68.3067 EX 40 13 28
1852241N34278 1852 5 NA NA NOT_NAMED 1852-08-31 00:00:00 ET 42.6000 -67.9000 spur-other 178 130 _____________O -1 42.6000 -67.9000 EX 40 13 29
1852241N34278 1852 5 NA NA NOT_NAMED 1852-08-31 03:00:00 ET 43.1573 -67.4644 spur-other 123 64 _____________P -1 43.1573 -67.4644 EX 37 13 31
1852241N34278 1852 5 NA NA NOT_NAMED 1852-08-31 06:00:00 ET 43.7000 -67.0000 spur-other 64 26 _____________O -1 43.7000 -67.0000 EX 35 13 33
1852241N34278 1852 5 NA NA NOT_NAMED 1852-08-31 09:00:00 ET 44.2105 -66.5091 spur-other 26 7 _____________P -1 44.2105 -66.5091 EX 35 12 36
1852241N34278 1852 5 NA NA NOT_NAMED 1852-08-31 12:00:00 ET 44.7000 -66.0000 spur-other 13 _____________O -1 44.7000 -66.0000 EX 35 12 37

IBTrACS Databaseについて

本データベースは、米国NOAAが公開する1842年以降の世界の熱帯低気圧のベストトラックデータアーカイブInternational Best Track Archive for Climate Stewardship (IBTrACS)を、ウェブで閲覧しやすい形式に変換したものです。

最終更新日:2021-10-25